createdAt,value
2019-01-08T00:01:54.596Z,3.70
2019-01-08T00:06:45.981Z,3.60
2019-01-08T00:11:37.397Z,3.70
2019-01-08T00:16:28.724Z,3.60
2019-01-08T00:21:20.112Z,3.70
2019-01-08T00:26:11.507Z,3.60
2019-01-08T00:31:02.913Z,3.40
2019-01-08T00:35:54.258Z,3.50
2019-01-08T00:40:45.688Z,3.40
2019-01-08T00:45:37.090Z,3.50
2019-01-08T00:50:28.504Z,3.60
2019-01-08T00:55:19.877Z,3.60
2019-01-08T01:00:11.296Z,3.60
2019-01-08T01:05:02.650Z,3.60
2019-01-08T01:09:53.977Z,3.60
2019-01-08T01:14:45.366Z,3.70
2019-01-08T01:19:36.782Z,3.60
2019-01-08T01:24:28.239Z,3.70
2019-01-08T01:29:19.553Z,3.70
2019-01-08T01:34:15.470Z,3.80
2019-01-08T01:39:06.893Z,3.80
2019-01-08T01:43:58.277Z,3.80
2019-01-08T01:48:49.685Z,3.80
2019-01-08T01:53:41.046Z,3.80
2019-01-08T01:58:32.406Z,3.80
2019-01-08T02:03:23.906Z,3.90
2019-01-08T02:08:15.195Z,3.90
2019-01-08T02:13:06.546Z,3.90
2019-01-08T02:17:57.950Z,4.00
2019-01-08T02:22:49.367Z,4.10
2019-01-08T02:27:40.768Z,4.20
2019-01-08T02:32:32.046Z,4.20
2019-01-08T02:37:23.512Z,4.20
2019-01-08T02:42:14.832Z,4.30
2019-01-08T02:47:06.216Z,4.30
2019-01-08T02:51:57.577Z,4.40
2019-01-08T02:56:49.072Z,4.20
2019-01-08T03:01:40.341Z,4.50
2019-01-08T03:06:31.796Z,4.50
2019-01-08T03:11:23.185Z,4.50
2019-01-08T03:16:14.535Z,4.50
2019-01-08T03:21:05.928Z,4.40
2019-01-08T03:25:57.314Z,4.60
2019-01-08T03:30:48.678Z,4.80
2019-01-08T03:35:40.148Z,4.70
2019-01-08T03:40:33.656Z,4.60
2019-01-08T03:45:25.125Z,4.70
2019-01-08T03:50:16.522Z,4.50
2019-01-08T03:55:10.164Z,4.60
2019-01-08T04:00:01.640Z,4.60
2019-01-08T04:04:53.031Z,4.60
2019-01-08T04:09:44.403Z,4.50
2019-01-08T04:14:35.775Z,4.50
2019-01-08T04:19:27.144Z,4.50
2019-01-08T04:24:18.605Z,4.50
2019-01-08T04:29:12.100Z,4.30
2019-01-08T04:34:03.575Z,4.30
2019-01-08T04:38:54.937Z,4.10
2019-01-08T04:43:46.365Z,4.20
2019-01-08T04:48:37.675Z,4.20
2019-01-08T04:53:29.108Z,4.20
2019-01-08T04:58:20.439Z,4.10
2019-01-08T05:03:11.868Z,4.10
2019-01-08T05:08:03.240Z,4.20
2019-01-08T05:12:54.676Z,4.10
2019-01-08T05:17:46.009Z,4.10
2019-01-08T05:22:37.376Z,4.10
2019-01-08T05:27:28.715Z,4.20
2019-01-08T05:32:20.251Z,4.20
2019-01-08T05:37:11.500Z,4.10
2019-01-08T05:42:02.909Z,4.30
2019-01-08T05:46:54.304Z,4.30
2019-01-08T05:51:45.681Z,4.30
2019-01-08T05:56:37.070Z,4.30
2019-01-08T06:01:28.492Z,4.40
2019-01-08T06:06:19.927Z,4.50
2019-01-08T06:11:11.288Z,4.60
2019-01-08T06:16:04.902Z,4.80
2019-01-08T06:21:00.875Z,5.00
2019-01-08T06:25:54.489Z,5.10
2019-01-08T06:30:52.677Z,5.20
2019-01-08T06:35:44.087Z,5.20
2019-01-08T06:40:35.504Z,5.40
2019-01-08T06:45:29.062Z,5.50
2019-01-08T06:50:27.253Z,5.60
2019-01-08T06:55:25.458Z,5.70
2019-01-08T07:00:23.665Z,5.80
2019-01-08T07:05:21.884Z,5.80
2019-01-08T07:15:09.252Z,5.90
2019-01-08T07:20:00.770Z,5.80
2019-01-08T07:24:54.172Z,5.90
2019-01-08T07:29:52.404Z,6.00
2019-01-08T07:39:48.821Z,6.10
2019-01-08T07:44:44.723Z,6.10
2019-01-08T07:49:42.951Z,6.20
2019-01-08T07:54:36.246Z,6.10
2019-01-08T07:59:25.786Z,6.20
2019-01-08T08:04:19.322Z,6.20
2019-01-08T08:09:19.816Z,6.10
2019-01-08T08:14:15.718Z,6.20
2019-01-08T08:19:14.221Z,6.10
2019-01-08T08:24:10.096Z,6.00
2019-01-08T08:29:08.254Z,5.90
2019-01-08T08:39:02.315Z,5.80
2019-01-08T08:44:00.566Z,5.80
2019-01-08T08:49:03.271Z,5.80
2019-01-08T08:53:56.903Z,5.90
2019-01-08T08:58:55.106Z,5.90
2019-01-08T09:03:51.021Z,6.00
2019-01-08T09:13:49.701Z,6.00
2019-01-08T09:18:45.578Z,5.90
2019-01-08T09:23:43.797Z,5.90
2019-01-08T09:28:41.958Z,6.10
2019-01-08T09:33:37.885Z,6.40
2019-01-08T09:38:36.126Z,6.40
2019-01-08T09:53:35.153Z,6.10
2019-01-08T09:58:44.775Z,6.00
2019-01-08T10:03:45.192Z,5.90
2019-01-08T10:08:41.108Z,5.80
2019-01-08T10:13:37.105Z,5.80
2019-01-08T10:18:37.559Z,5.90
2019-01-08T10:23:33.456Z,6.00
2019-01-08T10:33:27.608Z,6.60
2019-01-08T10:38:25.734Z,6.80
2019-01-08T10:43:17.188Z,6.90
2019-01-08T10:48:10.766Z,6.80
2019-01-08T10:53:04.427Z,6.60
2019-01-08T10:58:00.355Z,6.40
2019-01-08T11:02:58.542Z,6.30
2019-01-08T11:07:56.807Z,6.20
2019-01-08T11:12:52.737Z,6.10
2019-01-08T11:17:50.934Z,6.20
2019-01-08T11:22:55.942Z,6.60
2019-01-08T11:27:49.585Z,7.10
2019-01-08T11:32:45.486Z,7.50
2019-01-08T11:37:43.692Z,7.60
2019-01-08T11:42:44.169Z,7.40
2019-01-08T11:47:42.379Z,7.20
2019-01-08T11:52:36.022Z,7.10
2019-01-08T11:57:36.513Z,7.00
2019-01-08T12:02:32.462Z,7.10
2019-01-08T12:12:26.599Z,6.90
2019-01-08T12:17:20.269Z,6.70
2019-01-08T12:22:11.702Z,6.70
2019-01-08T12:27:03.096Z,6.40
2019-01-08T12:31:56.451Z,6.40
2019-01-08T12:36:45.851Z,6.40
2019-01-08T12:41:37.273Z,6.50
2019-01-08T12:46:28.805Z,6.70
2019-01-08T12:51:24.552Z,6.80
2019-01-08T12:56:15.975Z,6.80
2019-01-08T13:01:07.350Z,6.70
2019-01-08T13:05:58.808Z,6.90
2019-01-08T13:10:50.121Z,7.00
2019-01-08T13:15:41.567Z,7.30
2019-01-08T13:20:32.957Z,7.40
2019-01-08T13:25:24.239Z,7.20
2019-01-08T13:30:15.686Z,7.00
2019-01-08T13:35:07.018Z,6.80
2019-01-08T13:39:58.475Z,6.70
2019-01-08T13:44:49.757Z,6.60
2019-01-08T13:49:41.163Z,6.50
2019-01-08T13:54:32.531Z,6.40
2019-01-08T13:59:23.917Z,6.30
2019-01-08T14:04:15.351Z,6.30
2019-01-08T14:09:06.690Z,6.20
2019-01-08T14:13:58.065Z,6.10
2019-01-08T14:18:49.513Z,6.10
2019-01-08T14:23:40.818Z,5.80
2019-01-08T14:28:32.259Z,5.90
2019-01-08T14:33:23.610Z,5.80
2019-01-08T14:38:15.019Z,5.70
2019-01-08T14:43:14.892Z,5.70
2019-01-08T14:47:57.773Z,5.60
2019-01-08T14:52:49.157Z,5.60
2019-01-08T14:57:40.584Z,5.50
2019-01-08T15:02:31.997Z,5.40
2019-01-08T15:07:23.381Z,5.40
2019-01-08T15:12:14.806Z,5.40
2019-01-08T15:17:06.167Z,5.40
2019-01-08T15:21:57.706Z,5.30
2019-01-08T15:26:48.928Z,5.30
2019-01-08T15:31:40.335Z,5.30
2019-01-08T15:36:31.755Z,5.30
2019-01-08T15:41:23.152Z,5.10
2019-01-08T15:46:14.519Z,5.30
2019-01-08T15:51:05.847Z,5.30
2019-01-08T15:55:57.224Z,5.30
2019-01-08T16:00:48.638Z,5.30
2019-01-08T16:05:40.002Z,5.30
2019-01-08T16:10:31.391Z,5.10
2019-01-08T16:15:22.744Z,5.30
2019-01-08T16:20:14.147Z,5.20
2019-01-08T16:25:05.713Z,5.20
2019-01-08T16:29:57.016Z,5.10
2019-01-08T16:34:48.475Z,5.20
2019-01-08T16:39:39.846Z,5.20
2019-01-08T16:44:31.258Z,5.20
2019-01-08T16:49:22.571Z,5.20
2019-01-08T16:54:14.038Z,5.20
2019-01-08T16:59:05.460Z,5.20
2019-01-08T17:03:56.879Z,5.10
2019-01-08T17:08:48.252Z,5.10
2019-01-08T17:13:39.626Z,5.10
2019-01-08T17:18:31.045Z,5.10
2019-01-08T17:23:22.499Z,5.10
2019-01-08T17:28:16.109Z,5.10
2019-01-08T17:33:07.528Z,5.20
2019-01-08T17:37:59.042Z,5.20
2019-01-08T17:42:50.360Z,5.20
2019-01-08T17:47:41.751Z,5.20
2019-01-08T17:52:33.126Z,5.10
2019-01-08T17:57:24.466Z,5.20
2019-01-08T18:02:15.898Z,5.20
2019-01-08T18:07:07.213Z,5.20
2019-01-08T18:12:00.055Z,5.20
2019-01-08T18:16:49.969Z,5.10
2019-01-08T18:21:41.484Z,5.10
2019-01-08T18:26:34.929Z,5.10
2019-01-08T18:31:24.135Z,5.10
2019-01-08T18:36:15.553Z,5.00
2019-01-08T18:41:06.963Z,5.00
2019-01-08T18:45:58.299Z,5.00
2019-01-08T18:50:49.728Z,5.00
2019-01-08T18:55:41.133Z,5.00
2019-01-08T19:00:32.579Z,5.00
2019-01-08T19:05:23.962Z,5.00
2019-01-08T19:10:17.657Z,4.90
2019-01-08T19:15:09.188Z,4.90
2019-01-08T19:20:00.639Z,4.90
2019-01-08T19:24:51.948Z,4.80
2019-01-08T19:29:43.287Z,4.80
2019-01-08T19:34:34.719Z,4.80
2019-01-08T19:39:28.287Z,4.90
2019-01-08T19:44:19.746Z,4.80
2019-01-08T19:49:11.158Z,5.00
2019-01-08T19:54:02.550Z,4.90
2019-01-08T19:58:53.902Z,4.90
2019-01-08T20:03:45.313Z,4.90
2019-01-08T20:08:36.669Z,4.90
2019-01-08T20:13:28.099Z,4.90
2019-01-08T20:18:19.456Z,5.00
2019-01-08T20:23:10.870Z,4.90
2019-01-08T20:32:55.997Z,4.90
2019-01-08T20:37:47.401Z,4.80
2019-01-08T20:42:41.001Z,4.80
2019-01-08T20:47:32.504Z,4.80
2019-01-08T20:52:23.856Z,4.70
2019-01-08T20:57:15.170Z,4.70
2019-01-08T21:02:06.635Z,4.60
2019-01-08T21:06:58.006Z,4.80
2019-01-08T21:11:49.424Z,4.70
2019-01-08T21:16:40.828Z,4.60
2019-01-08T21:21:32.276Z,4.50
2019-01-08T21:26:26.015Z,4.40
2019-01-08T21:31:17.495Z,4.40
2019-01-08T21:36:08.793Z,4.40
2019-01-08T21:41:00.168Z,4.40
2019-01-08T21:45:51.616Z,4.40
2019-01-08T21:50:42.937Z,4.40
2019-01-08T21:55:34.365Z,4.50
2019-01-08T22:00:25.785Z,4.50
2019-01-08T22:05:17.160Z,4.50
2019-01-08T22:10:08.503Z,4.40
2019-01-08T22:14:59.933Z,4.40
2019-01-08T22:19:53.509Z,4.30
2019-01-08T22:24:44.942Z,4.30
2019-01-08T22:29:36.348Z,4.30
2019-01-08T22:34:27.827Z,4.20
2019-01-08T22:39:19.249Z,3.90
2019-01-08T22:44:10.649Z,4.10
2019-01-08T22:49:01.956Z,4.00
2019-01-08T22:53:53.359Z,4.00
2019-01-08T22:58:44.751Z,4.10
2019-01-08T23:03:36.117Z,4.10
2019-01-08T23:08:27.539Z,4.10
2019-01-08T23:13:18.971Z,4.10
2019-01-08T23:18:10.322Z,4.00
2019-01-08T23:23:01.744Z,4.10
2019-01-08T23:27:53.089Z,4.20
2019-01-08T23:32:44.499Z,4.20
2019-01-08T23:37:35.847Z,4.10
2019-01-08T23:42:27.243Z,4.10
2019-01-08T23:47:18.702Z,4.00
2019-01-08T23:52:10.063Z,3.90
2019-01-08T23:57:01.420Z,3.80
